Time;durP1;ratioP1;P1;durP2;ratioP2;P2;SDS_P1;SDS_P2;PMS_P1;PMS_P2;Temp;Humidity;BMP_temperature;BMP_pressure;BME280_temperature;BME280_humidity;BME280_pressure;Samples;Min_cycle;Max_cycle;Signal;HPM_P1;HPM_P2
2022/01/30 00:00:14;;;;;;;8.57;4.00;;;21.20;40.60;;;;;;5003846;28;43540;-67
2022/01/30 00:02:42;;;;;;;11.48;4.25;;;21.20;40.60;;;;;;5019620;28;43576;-65
2022/01/30 00:05:10;;;;;;;10.63;4.07;;;21.20;40.70;;;;;;5002837;28;43607;-66
2022/01/30 00:07:37;;;;;;;10.40;4.10;;;21.20;40.60;;;;;;5002515;28;43546;-67
2022/01/30 00:10:09;;;;;;;10.30;4.18;;;21.20;40.60;;;;;;5002144;28;43532;-66
2022/01/30 00:12:51;;;;;;;12.23;4.10;;;21.20;40.60;;;;;;4993730;28;45775;-66
2022/01/30 00:15:27;;;;;;;9.20;3.95;;;21.10;40.60;;;;;;5018606;28;43545;-65
2022/01/30 00:18:08;;;;;;;8.95;3.97;;;21.10;41.30;;;;;;5017620;28;43513;-67
2022/01/30 00:20:38;;;;;;;11.05;4.35;;;21.10;40.70;;;;;;5019773;28;43456;-67
2022/01/30 00:23:12;;;;;;;9.37;3.47;;;21.10;40.70;;;;;;5020277;28;44059;-66
2022/01/30 00:25:58;;;;;;;8.32;3.83;;;21.10;41.30;;;;;;5021029;28;43472;-65
2022/01/30 00:28:26;;;;;;;8.43;3.85;;;21.10;40.60;;;;;;5017472;28;43941;-67
2022/01/30 00:30:55;;;;;;;9.90;4.28;;;21.10;40.60;;;;;;5016487;28;43621;-67
2022/01/30 00:33:22;;;;;;;9.27;3.70;;;21.10;40.70;;;;;;5001332;28;43935;-67
2022/01/30 00:35:51;;;;;;;8.00;3.75;;;21.10;40.80;;;;;;5020892;28;43554;-67
2022/01/30 00:38:21;;;;;;;7.05;3.78;;;21.00;40.60;;;;;;5019090;28;43479;-67
2022/01/30 00:40:50;;;;;;;9.10;3.85;;;21.00;40.60;;;;;;5018745;28;43487;-65
2022/01/30 00:43:19;;;;;;;9.02;4.13;;;21.10;40.60;;;;;;5019201;28;44011;-65
2022/01/30 00:45:48;;;;;;;9.25;4.22;;;21.10;40.70;;;;;;5019910;28;44616;-67
2022/01/30 00:48:16;;;;;;;8.68;4.10;;;21.10;40.60;;;;;;5002788;28;43534;-64
2022/01/30 00:50:44;;;;;;;9.48;4.38;;;21.00;40.60;;;;;;5002206;28;43597;-64
2022/01/30 00:53:12;;;;;;;8.63;4.00;;;21.10;40.60;;;;;;5015714;28;43934;-66
2022/01/30 00:55:40;;;;;;;11.25;4.68;;;21.00;40.70;;;;;;5000657;28;43578;-67
2022/01/30 00:58:08;;;;;;;8.48;3.80;;;21.00;40.60;;;;;;5017531;28;43495;-64
2022/01/30 01:00:36;;;;;;;7.75;3.85;;;21.00;40.60;;;;;;5014693;28;43606;-68
2022/01/30 01:03:05;;;;;;;9.98;4.25;;;21.00;40.60;;;;;;5014671;28;46113;-66
2022/01/30 01:05:35;;;;;;;9.45;4.55;;;21.00;40.60;;;;;;5016720;28;43964;-67
2022/01/30 01:08:12;;;;;;;9.18;3.97;;;21.00;40.60;;;;;;4999256;28;43531;-67
2022/01/30 01:10:47;;;;;;;9.55;4.30;;;21.00;40.60;;;;;;5019620;28;43444;-66
2022/01/30 01:24:06;;;;;;;9.50;4.80;;;20.80;40.60;;;;;;5020059;28;44085;-64
2022/01/30 01:26:36;;;;;;;10.82;5.10;;;20.80;40.60;;;;;;5023632;28;43609;-64
2022/01/30 01:29:05;;;;;;;10.60;4.50;;;20.80;40.70;;;;;;5005324;28;43553;-66
2022/01/30 01:31:33;;;;;;;10.75;4.35;;;20.80;40.70;;;;;;5018601;28;43545;-66
2022/01/30 01:36:28;;;;;;;10.70;4.50;;;20.70;40.70;;;;;;5021162;28;44702;-67
2022/01/30 01:38:55;;;;;;;10.23;4.13;;;20.70;40.70;;;;;;4993374;28;43510;-67
2022/01/30 01:41:25;;;;;;;11.00;4.22;;;20.70;40.70;;;;;;5019613;28;43572;-67
2022/01/30 01:43:52;;;;;;;10.35;3.90;;;20.70;40.80;;;;;;5020741;28;44192;-66
2022/01/30 01:46:31;;;;;;;9.27;4.13;;;20.70;40.80;;;;;;5003019;28;44200;-68
2022/01/30 01:48:58;;;;;;;7.43;3.70;;;20.70;40.80;;;;;;5020606;28;43523;-65
2022/01/30 01:51:30;;;;;;;9.35;4.00;;;20.70;40.70;;;;;;5021450;28;43574;-67
2022/01/30 01:53:59;;;;;;;9.45;4.03;;;20.70;40.70;;;;;;5019107;28;43781;-67
2022/01/30 01:56:28;;;;;;;9.98;4.40;;;20.70;40.70;;;;;;5020807;28;43586;-67
2022/01/30 01:59:12;;;;;;;9.50;4.00;;;20.70;40.70;;;;;;5005210;28;43529;-65
2022/01/30 02:02:01;;;;;;;9.07;4.00;;;20.70;40.70;;;;;;5021138;28;43540;-67
2022/01/30 02:04:30;;;;;;;9.57;4.35;;;20.70;40.80;;;;;;5020810;28;44690;-64
2022/01/30 02:09:47;;;;;;;10.60;4.47;;;20.60;40.70;;;;;;4983772;28;43624;-68
2022/01/30 02:12:19;;;;;;;11.50;4.38;;;20.60;41.40;;;;;;5033780;28;43626;-65
2022/01/30 02:15:12;;;;;;;11.13;4.82;;;20.60;40.80;;;;;;4983593;28;44963;-67
2022/01/30 02:25:59;;;;;;;12.18;5.13;;;20.50;40.70;;;;;;5005122;28;47186;-65
2022/01/30 02:28:30;;;;;;;12.15;4.78;;;20.50;40.80;;;;;;4984530;28;43509;-67
2022/01/30 02:33:29;;;;;;;13.18;5.00;;;20.50;40.80;;;;;;4989297;28;43586;-66
2022/01/30 02:35:56;;;;;;;13.10;4.55;;;20.40;40.80;;;;;;4982914;28;45361;-65
2022/01/30 02:38:25;;;;;;;11.82;5.00;;;20.40;40.80;;;;;;5005697;28;44451;-67
2022/01/30 02:40:55;;;;;;;11.35;4.72;;;20.50;40.80;;;;;;4988830;28;43528;-66
2022/01/30 02:43:31;;;;;;;12.53;4.80;;;20.40;40.80;;;;;;4985278;28;43644;-66
2022/01/30 02:46:10;;;;;;;10.73;4.75;;;20.50;40.90;;;;;;4989594;28;45494;-66
2022/01/30 02:48:53;;;;;;;12.77;5.22;;;20.40;40.90;;;;;;4990207;28;43508;-65
2022/01/30 02:51:22;;;;;;;11.88;4.88;;;20.40;40.90;;;;;;5000695;28;44014;-67
2022/01/30 02:54:03;;;;;;;12.25;5.25;;;20.40;40.90;;;;;;5002920;28;43818;-65
2022/01/30 02:56:36;;;;;;;12.38;5.07;;;20.40;40.90;;;;;;4986595;28;43973;-64
2022/01/30 02:59:03;;;;;;;11.63;5.22;;;20.40;40.90;;;;;;4987825;28;43588;-67
2022/01/30 03:01:31;;;;;;;11.80;4.95;;;20.40;40.80;;;;;;5008077;28;43481;-67
2022/01/30 03:03:59;;;;;;;11.15;5.18;;;20.40;40.80;;;;;;5005602;28;43596;-66
2022/01/30 03:06:27;;;;;;;11.93;5.32;;;20.40;40.90;;;;;;4985256;28;44165;-68
2022/01/30 03:08:55;;;;;;;11.95;5.60;;;20.30;40.80;;;;;;4988812;28;45019;-65
2022/01/30 03:11:23;;;;;;;12.48;5.15;;;20.30;40.80;;;;;;4986970;28;43464;-68
2022/01/30 03:13:50;;;;;;;12.45;5.30;;;20.30;40.70;;;;;;4988829;28;43581;-69
2022/01/30 03:16:21;;;;;;;11.55;5.00;;;20.30;40.70;;;;;;5004115;28;44163;-66
2022/01/30 03:18:49;;;;;;;12.10;5.60;;;20.30;40.70;;;;;;4985074;28;43695;-65
2022/01/30 03:21:18;;;;;;;13.23;4.88;;;20.30;40.70;;;;;;4986178;28;43553;-66
2022/01/30 03:23:46;;;;;;;12.95;5.00;;;20.20;40.70;;;;;;5006052;28;43484;-65
2022/01/30 03:26:15;;;;;;;11.98;5.15;;;20.20;40.70;;;;;;4987936;28;46226;-67
2022/01/30 03:29:06;;;;;;;13.18;5.78;;;20.20;40.70;;;;;;5004229;28;43515;-65
2022/01/30 03:31:42;;;;;;;11.30;4.93;;;20.20;40.80;;;;;;4983889;28;43558;-66
2022/01/30 03:34:12;;;;;;;12.63;5.30;;;20.20;40.80;;;;;;4999570;28;43564;-65
2022/01/30 03:36:48;;;;;;;12.50;4.95;;;20.20;40.80;;;;;;4988390;28;44015;-66
2022/01/30 03:39:16;;;;;;;12.68;5.20;;;20.20;40.80;;;;;;4992242;28;43485;-67
2022/01/30 03:41:44;;;;;;;13.93;5.55;;;20.20;40.80;;;;;;5002545;28;43518;-68
2022/01/30 03:44:14;;;;;;;13.70;5.80;;;20.20;40.70;;;;;;4988252;28;43560;-67
2022/01/30 03:46:42;;;;;;;12.20;5.72;;;20.10;40.70;;;;;;4989283;28;44176;-67
2022/01/30 03:49:23;;;;;;;11.88;5.50;;;20.10;40.70;;;;;;4999818;28;43604;-67
2022/01/30 03:52:29;;;;;;;13.52;5.45;;;20.20;41.50;;;;;;4985687;28;43532;-66
2022/01/30 03:54:57;;;;;;;15.98;6.10;;;20.20;40.80;;;;;;5004102;28;43630;-67
2022/01/30 03:57:25;;;;;;;14.93;6.53;;;20.20;40.90;;;;;;5020047;28;44039;-65
2022/01/30 03:59:52;;;;;;;14.32;5.47;;;20.20;40.90;;;;;;4987436;28;43584;-68
2022/01/30 04:02:20;;;;;;;13.98;5.43;;;20.10;40.70;;;;;;5002618;28;43431;-66
2022/01/30 04:04:49;;;;;;;12.93;5.38;;;20.10;40.70;;;;;;4987570;28;43515;-66
2022/01/30 04:07:18;;;;;;;11.52;5.22;;;20.10;40.70;;;;;;5000156;28;43673;-66
2022/01/30 04:10:15;;;;;;;12.95;6.00;;;20.10;40.70;;;;;;4983711;28;43547;-65
2022/01/30 04:12:59;;;;;;;13.02;5.70;;;20.10;40.70;;;;;;5006355;28;43545;-68
2022/01/30 04:15:47;;;;;;;13.13;5.50;;;20.00;40.60;;;;;;5003966;28;43723;-66
2022/01/30 04:18:26;;;;;;;11.32;5.30;;;20.00;40.60;;;;;;5004331;28;43821;-67
2022/01/30 04:21:26;;;;;;;14.63;5.75;;;20.00;40.60;;;;;;4976819;28;43458;-64
2022/01/30 04:24:23;;;;;;;13.15;5.50;;;20.00;40.60;;;;;;5001503;28;43479;-66
2022/01/30 04:27:00;;;;;;;13.95;5.40;;;20.00;40.60;;;;;;4983198;28;43457;-66
2022/01/30 04:29:43;;;;;;;14.25;5.60;;;20.00;40.60;;;;;;4991239;28;44197;-65
2022/01/30 04:32:36;;;;;;;;;;;20.00;40.60;;;;;;4990336;28;43942;-67
2022/01/30 04:35:26;;;;;;;13.73;5.65;;;20.00;40.60;;;;;;5005493;28;43476;-65
2022/01/30 04:57:16;;;;;;;13.43;5.72;;;19.90;40.90;;;;;;4990726;28;44497;-65
2022/01/30 05:08:34;;;;;;;15.23;5.70;;;19.90;40.90;;;;;;5002663;28;43885;-65
2022/01/30 05:11:25;;;;;;;14.50;6.18;;;19.90;40.90;;;;;;5018916;28;43503;-67
2022/01/30 05:14:20;;;;;;;13.07;5.55;;;19.90;40.90;;;;;;4965956;28;43677;-67
2022/01/30 05:17:17;;;;;;;;;;;19.80;40.90;;;;;;4986706;28;46118;-67
2022/01/30 05:20:04;;;;;;;13.15;5.72;;;19.80;41.00;;;;;;5003022;28;43492;-66
2022/01/30 05:22:48;;;;;;;12.18;5.93;;;19.80;41.10;;;;;;4998307;28;43487;-68
2022/01/30 05:25:53;;;;;;;14.93;6.22;;;19.80;41.20;;;;;;4947832;28;43456;-68
2022/01/30 05:28:22;;;;;;;14.13;5.70;;;19.80;41.20;;;;;;4990852;28;44070;-67
2022/01/30 05:30:50;;;;;;;13.25;5.57;;;19.80;41.20;;;;;;5003200;28;43541;-67
2022/01/30 05:33:37;;;;;;;13.52;5.28;;;19.80;41.30;;;;;;4989162;28;43479;-65
2022/01/30 05:36:41;;;;;;;16.45;6.45;;;19.70;41.20;;;;;;4999062;28;43417;-65
2022/01/30 05:39:27;;;;;;;12.55;5.60;;;19.70;41.20;;;;;;5003127;28;45601;-65
2022/01/30 05:42:03;;;;;;;14.15;6.00;;;19.80;41.30;;;;;;4989708;28;43503;-64
2022/01/30 05:45:12;;;;;;;14.95;6.00;;;19.70;41.20;;;;;;5001426;28;43452;-65
2022/01/30 05:48:10;;;;;;;11.68;5.65;;;19.70;41.20;;;;;;5004201;28;43587;-67
2022/01/30 05:51:04;;;;;;;12.20;5.55;;;19.70;41.30;;;;;;4978442;28;44135;-65
2022/01/30 05:53:42;;;;;;;13.80;6.00;;;19.70;41.30;;;;;;4988273;28;43654;-67
2022/01/30 05:56:13;;;;;;;12.43;5.55;;;19.70;41.30;;;;;;4990447;28;43460;-68
2022/01/30 05:58:41;;;;;;;14.77;6.10;;;19.70;41.30;;;;;;4991322;28;43657;-67
2022/01/30 06:01:20;;;;;;;14.20;6.40;;;19.70;41.20;;;;;;4988137;28;44198;-65
2022/01/30 06:03:48;;;;;;;13.35;5.75;;;19.70;41.30;;;;;;4992632;28;43960;-66
2022/01/30 06:06:15;;;;;;;13.85;5.65;;;19.70;41.20;;;;;;5010578;28;43520;-67
2022/01/30 06:08:58;;;;;;;12.55;5.70;;;19.70;41.30;;;;;;5007442;28;43479;-65
2022/01/30 06:11:26;;;;;;;13.27;5.82;;;19.70;41.30;;;;;;4988526;28;43932;-65
2022/01/30 06:13:53;;;;;;;12.73;5.70;;;19.60;41.20;;;;;;5005709;28;43441;-68
2022/01/30 06:16:21;;;;;;;14.65;6.00;;;19.70;41.30;;;;;;4988088;28;43473;-66
2022/01/30 06:18:50;;;;;;;13.63;5.93;;;19.70;41.30;;;;;;5007662;28;43550;-65
2022/01/30 06:21:36;;;;;;;13.38;5.93;;;19.60;41.20;;;;;;5003627;28;44206;-66
2022/01/30 06:24:22;;;;;;;12.70;6.10;;;19.60;41.20;;;;;;5021335;28;43461;-65
2022/01/30 06:27:05;;;;;;;15.40;6.72;;;19.70;41.30;;;;;;5005701;28;43465;-65
2022/01/30 06:29:51;;;;;;;13.98;6.00;;;19.60;41.20;;;;;;5009954;28;43505;-65
2022/01/30 06:32:41;;;;;;;13.95;5.60;;;19.60;41.20;;;;;;4986674;28;44226;-66
2022/01/30 06:35:32;;;;;;;12.57;5.43;;;19.60;41.20;;;;;;5006347;28;44401;-67
2022/01/30 06:38:21;;;;;;;15.43;5.85;;;19.60;41.20;;;;;;4982456;28;43572;-67
2022/01/30 06:41:09;;;;;;;10.57;5.03;;;19.60;41.20;;;;;;4993983;28;43624;-67
2022/01/30 06:43:57;;;;;;;13.38;6.05;;;19.50;41.20;;;;;;4991308;28;44037;-64
2022/01/30 06:46:42;;;;;;;13.65;6.30;;;19.50;41.10;;;;;;5017694;28;43508;-67
2022/01/30 06:49:29;;;;;;;14.20;5.97;;;19.50;41.10;;;;;;5008498;28;43719;-66
2022/01/30 06:52:07;;;;;;;17.08;5.72;;;19.50;41.10;;;;;;5007894;28;43516;-67
2022/01/30 06:54:54;;;;;;;12.45;5.32;;;19.50;41.10;;;;;;5005984;28;44183;-67
2022/01/30 06:57:45;;;;;;;12.20;5.43;;;19.50;41.10;;;;;;5003264;28;43426;-66
2022/01/30 07:00:31;;;;;;;11.73;5.18;;;19.50;41.00;;;;;;5020152;28;43428;-67
2022/01/30 07:03:17;;;;;;;13.35;5.30;;;19.50;41.00;;;;;;5004221;28;43592;-66
2022/01/30 07:05:59;;;;;;;12.90;5.47;;;19.50;40.90;;;;;;4992740;28;43943;-67
2022/01/30 07:08:33;;;;;;;12.10;5.07;;;19.50;40.90;;;;;;5006170;28;43452;-64
2022/01/30 07:11:00;;;;;;;12.38;5.20;;;19.50;40.90;;;;;;5009708;28;43540;-66
2022/01/30 07:13:27;;;;;;;14.13;5.70;;;19.50;40.90;;;;;;5018544;28;43495;-67
2022/01/30 07:15:55;;;;;;;13.35;5.57;;;19.40;40.80;;;;;;5019550;28;43937;-66
2022/01/30 07:18:24;;;;;;;13.90;5.53;;;19.50;40.80;;;;;;5021868;28;43481;-64
2022/01/30 07:20:53;;;;;;;10.40;4.93;;;19.40;40.70;;;;;;5005289;28;43436;-66
2022/01/30 07:23:20;;;;;;;11.60;4.65;;;19.40;40.70;;;;;;5019056;28;43552;-65
2022/01/30 07:25:48;;;;;;;13.65;5.28;;;19.50;40.80;;;;;;5017897;28;43916;-66
2022/01/30 07:28:15;;;;;;;11.45;5.07;;;19.40;40.90;;;;;;5002671;28;44918;-65
2022/01/30 07:30:43;;;;;;;14.85;5.72;;;19.40;40.90;;;;;;5020733;28;43504;-65
2022/01/30 07:33:10;;;;;;;12.90;4.70;;;19.40;40.90;;;;;;5021661;28;43655;-67
2022/01/30 07:35:42;;;;;;;12.18;5.20;;;19.40;40.90;;;;;;5019240;28;44173;-65
2022/01/30 07:38:09;;;;;;;11.48;5.30;;;19.40;41.00;;;;;;5020404;28;44010;-63
2022/01/30 07:40:38;;;;;;;11.65;4.95;;;19.40;41.00;;;;;;5019079;28;43446;-66
2022/01/30 07:43:05;;;;;;;12.77;4.85;;;19.40;41.00;;;;;;5021001;28;43614;-65
2022/01/30 07:45:33;;;;;;;13.43;5.18;;;19.40;41.00;;;;;;5003863;28;43932;-67
2022/01/30 07:48:02;;;;;;;14.05;5.63;;;19.40;41.00;;;;;;5020708;28;43627;-65
2022/01/30 07:50:30;;;;;;;11.02;4.90;;;19.40;41.00;;;;;;5020789;28;43499;-65
2022/01/30 07:52:58;;;;;;;10.85;4.82;;;19.40;41.00;;;;;;5018203;28;43498;-65
2022/01/30 07:55:25;;;;;;;12.77;5.05;;;19.40;41.00;;;;;;5020501;28;44775;-67
2022/01/30 07:57:53;;;;;;;13.02;5.15;;;19.50;41.10;;;;;;5021577;28;43532;-65
2022/01/30 08:00:20;;;;;;;10.80;4.93;;;19.50;41.00;;;;;;5022543;28;43471;-67
2022/01/30 08:02:49;;;;;;;14.27;5.43;;;19.50;41.00;;;;;;5019453;28;43534;-65
2022/01/30 08:05:17;;;;;;;12.00;5.15;;;19.50;41.00;;;;;;5021375;28;43921;-66
2022/01/30 08:07:45;;;;;;;11.70;5.18;;;19.50;40.90;;;;;;5020732;28;43443;-65
2022/01/30 08:10:12;;;;;;;15.45;6.25;;;19.50;40.90;;;;;;5020390;28;43547;-67
2022/01/30 08:12:40;;;;;;;12.32;5.30;;;19.60;40.90;;;;;;5020289;28;43551;-66
2022/01/30 08:15:08;;;;;;;11.05;5.82;;;19.60;40.90;;;;;;5018865;28;45845;-65
2022/01/30 08:17:37;;;;;;;11.43;5.50;;;19.60;40.90;;;;;;5019473;28;43525;-66
2022/01/30 08:20:06;;;;;;;14.10;5.85;;;19.60;40.90;;;;;;5017419;28;43527;-67
2022/01/30 08:22:49;;;;;;;13.15;5.40;;;19.60;40.90;;;;;;5019770;28;43559;-65
2022/01/30 08:25:21;;;;;;;12.65;5.60;;;19.60;40.80;;;;;;5017583;28;43944;-66
2022/01/30 08:27:50;;;;;;;14.13;5.05;;;19.60;40.90;;;;;;5017865;28;43603;-65
2022/01/30 08:30:17;;;;;;;11.57;5.57;;;19.60;41.00;;;;;;5020462;28;43570;-66
2022/01/30 08:32:47;;;;;;;13.23;5.45;;;19.60;40.90;;;;;;5020690;28;43540;-66
2022/01/30 08:35:16;;;;;;;12.48;5.70;;;19.60;40.90;;;;;;5021692;28;43755;-67
2022/01/30 08:37:44;;;;;;;11.52;4.78;;;19.60;40.90;;;;;;5020802;28;44774;-66
2022/01/30 08:40:14;;;;;;;10.80;5.30;;;19.60;40.90;;;;;;5003762;28;43546;-66
2022/01/30 08:42:43;;;;;;;13.53;5.77;;;19.60;40.80;;;;;;5017572;28;43553;-65
2022/01/30 08:45:15;;;;;;;13.98;5.65;;;19.60;40.80;;;;;;5019974;28;43951;-66
2022/01/30 08:47:45;;;;;;;11.10;4.90;;;19.60;40.80;;;;;;5017311;28;43653;-66
2022/01/30 08:50:15;;;;;;;14.25;5.32;;;19.70;40.90;;;;;;5017394;28;43432;-65
2022/01/30 08:52:43;;;;;;;11.60;5.07;;;19.60;40.80;;;;;;5002692;28;43551;-66
2022/01/30 08:55:11;;;;;;;11.80;5.25;;;19.70;40.80;;;;;;5017537;28;44003;-66
2022/01/30 08:57:40;;;;;;;11.85;5.57;;;19.60;40.80;;;;;;5021130;28;44056;-66
2022/01/30 09:00:11;;;;;;;12.82;5.95;;;19.60;40.80;;;;;;5020027;28;43469;-67
2022/01/30 09:02:38;;;;;;;;;;;19.70;40.90;;;;;;5004524;28;43612;-66
2022/01/30 09:05:07;;;;;;;12.80;5.00;;;19.70;40.90;;;;;;5020201;28;45986;-66
2022/01/30 09:07:37;;;;;;;14.80;5.88;;;19.70;40.90;;;;;;5019145;28;43505;-68
2022/01/30 09:10:06;;;;;;;14.00;6.13;;;19.70;40.80;;;;;;5018572;28;43544;-65
2022/01/30 09:12:34;;;;;;;11.30;5.50;;;19.70;40.80;;;;;;5021443;28;43540;-66
2022/01/30 09:15:07;;;;;;;13.15;5.68;;;19.70;40.90;;;;;;5001555;28;43936;-65
2022/01/30 09:17:35;;;;;;;12.77;5.43;;;19.70;41.00;;;;;;5005042;28;43628;-68
2022/01/30 09:20:04;;;;;;;12.55;5.13;;;19.80;41.80;;;;;;5004275;28;43427;-68
2022/01/30 09:22:32;;;;;;;14.02;5.53;;;19.90;41.00;;;;;;5004018;28;43614;-67
2022/01/30 09:24:59;;;;;;;11.77;4.45;;;20.00;41.00;;;;;;5002702;28;45274;-68
2022/01/30 09:27:28;;;;;;;16.98;5.63;;;20.10;41.00;;;;;;5007081;28;43474;-69
2022/01/30 09:29:56;;;;;;;11.35;5.13;;;20.20;40.80;;;;;;5017399;28;43447;-67
2022/01/30 09:32:23;;;;;;;14.35;5.22;;;20.20;40.70;;;;;;5023985;28;43549;-66
2022/01/30 09:34:51;;;;;;;11.30;5.47;;;20.40;40.70;;;;;;5003551;28;44215;-64
2022/01/30 09:37:19;;;;;;;11.20;4.93;;;20.50;40.50;;;;;;5005407;28;43509;-64
2022/01/30 09:39:46;;;;;;;13.82;5.30;;;20.60;40.60;;;;;;5025224;28;43485;-63
2022/01/30 09:42:16;;;;;;;12.57;5.25;;;20.70;40.40;;;;;;5024344;28;43499;-64
2022/01/30 09:44:45;;;;;;;11.40;5.00;;;20.80;40.40;;;;;;5024019;28;45045;-62
2022/01/30 09:47:17;;;;;;;13.40;5.30;;;20.90;40.20;;;;;;5023251;28;43921;-64
2022/01/30 09:49:48;;;;;;;12.80;5.15;;;21.10;40.20;;;;;;5024428;28;43448;-63
2022/01/30 09:52:16;;;;;;;12.95;5.72;;;21.20;40.20;;;;;;5008128;28;43458;-66
2022/01/30 09:54:45;;;;;;;11.57;4.88;;;21.30;39.90;;;;;;5024331;28;43802;-62
2022/01/30 09:57:12;;;;;;;13.23;5.40;;;21.40;40.00;;;;;;5024209;28;43496;-62
2022/01/30 09:59:40;;;;;;;12.65;5.43;;;21.50;39.90;;;;;;5024205;28;43477;-63
2022/01/30 10:02:09;;;;;;;12.70;4.95;;;21.60;39.60;;;;;;5023287;28;43456;-63
2022/01/30 10:04:39;;;;;;;13.15;5.15;;;21.70;39.50;;;;;;5023720;28;43788;-61
2022/01/30 10:07:13;;;;;;;11.57;5.30;;;21.70;39.20;;;;;;5023536;28;43983;-62
2022/01/30 10:09:50;;;;;;;12.77;5.20;;;21.80;39.10;;;;;;5024136;28;43471;-63
2022/01/30 10:12:20;;;;;;;12.73;4.85;;;21.90;38.90;;;;;;5021675;28;45042;-63
2022/01/30 10:15:08;;;;;;;11.32;5.15;;;21.90;38.70;;;;;;5022108;28;44121;-63
2022/01/30 10:17:46;;;;;;;11.82;5.07;;;22.00;38.80;;;;;;5024072;28;43618;-63
2022/01/30 10:20:39;;;;;;;13.48;5.25;;;22.10;38.80;;;;;;5018125;28;43453;-62
2022/01/30 10:23:09;;;;;;;12.52;5.07;;;22.10;38.70;;;;;;5023295;28;43454;-63
2022/01/30 10:25:47;;;;;;;12.88;5.25;;;22.10;39.20;;;;;;5021703;28;44841;-64
2022/01/30 10:28:17;;;;;;;13.32;5.07;;;22.20;38.40;;;;;;5019644;28;44059;-64
2022/01/30 10:30:46;;;;;;;12.95;4.60;;;22.20;38.50;;;;;;5023363;28;43535;-64
2022/01/30 10:33:16;;;;;;;11.05;4.75;;;22.20;38.50;;;;;;5002706;28;43646;-66
2022/01/30 10:35:57;;;;;;;12.83;5.47;;;22.30;38.50;;;;;;5008066;28;43909;-65
2022/01/30 10:38:30;;;;;;;13.82;5.43;;;22.30;38.30;;;;;;5021751;28;43545;-66
2022/01/30 10:41:10;;;;;;;13.35;5.07;;;22.30;38.30;;;;;;5019808;28;43472;-65
2022/01/30 10:43:46;;;;;;;12.45;4.80;;;22.40;38.40;;;;;;5024264;28;43527;-65
2022/01/30 10:46:19;;;;;;;12.43;5.20;;;22.40;38.40;;;;;;5000706;28;44692;-65
2022/01/30 10:49:01;;;;;;;15.70;5.65;;;22.40;38.40;;;;;;5003641;28;43511;-65
2022/01/30 10:51:33;;;;;;;13.20;5.00;;;22.40;38.40;;;;;;5019439;28;43451;-65
2022/01/30 10:54:12;;;;;;;11.60;5.25;;;22.50;38.40;;;;;;5004568;28;43878;-65
2022/01/30 10:56:40;;;;;;;12.55;4.78;;;22.50;38.40;;;;;;5020060;28;43581;-65
2022/01/30 10:59:16;;;;;;;13.35;5.28;;;22.50;38.50;;;;;;5003514;28;43499;-65
2022/01/30 11:01:49;;;;;;;12.43;4.88;;;22.50;38.50;;;;;;5001982;28;43476;-65
2022/01/30 11:04:28;;;;;;;10.57;4.90;;;22.50;38.50;;;;;;5023565;28;43514;-65
2022/01/30 11:07:00;;;;;;;12.00;5.30;;;22.50;38.50;;;;;;5003030;28;44827;-65
2022/01/30 11:09:36;;;;;;;10.02;4.82;;;22.50;38.50;;;;;;5023202;28;44043;-65
2022/01/30 11:12:10;;;;;;;12.52;4.80;;;22.60;38.60;;;;;;5019255;28;43496;-65
2022/01/30 11:17:10;;;;;;;10.88;4.68;;;22.60;38.70;;;;;;5004660;28;44696;-64
2022/01/30 11:19:40;;;;;;;13.10;4.85;;;22.60;38.70;;;;;;5018293;28;43455;-65
2022/01/30 11:22:11;;;;;;;11.05;4.53;;;22.60;38.70;;;;;;5021865;28;43488;-65
2022/01/30 11:25:09;;;;;;;11.57;4.80;;;22.60;38.70;;;;;;5022529;28;43548;-65
2022/01/30 11:27:41;;;;;;;12.13;5.03;;;22.60;38.80;;;;;;5008934;28;43780;-64
2022/01/30 11:30:10;;;;;;;11.15;5.00;;;22.60;38.70;;;;;;5017276;28;44530;-65
2022/01/30 11:32:39;;;;;;;13.38;5.28;;;22.70;38.80;;;;;;5022300;28;43702;-65
2022/01/30 11:35:07;;;;;;;11.90;4.80;;;22.70;38.80;;;;;;5020132;28;44000;-65
2022/01/30 11:37:38;;;;;;;10.10;4.40;;;22.70;38.80;;;;;;5001905;28;44682;-65
2022/01/30 11:40:24;;;;;;;11.00;4.82;;;22.70;38.80;;;;;;5020358;28;43975;-65
2022/01/30 11:42:51;;;;;;;11.57;5.18;;;22.80;38.90;;;;;;5022178;28;43631;-65
2022/01/30 11:45:32;;;;;;;11.90;5.35;;;22.70;38.80;;;;;;5022669;28;43718;-64
2022/01/30 11:48:14;;;;;;;13.50;5.80;;;22.70;38.80;;;;;;5004645;28;44210;-64
2022/01/30 11:50:42;;;;;;;12.02;5.00;;;22.70;38.80;;;;;;5020998;28;43551;-65
2022/01/30 11:53:13;;;;;;;10.13;4.85;;;22.70;38.80;;;;;;5006498;28;43591;-64
2022/01/30 11:55:49;;;;;;;12.63;5.22;;;22.70;38.80;;;;;;5004771;28;44098;-65
2022/01/30 11:58:40;;;;;;;10.77;4.88;;;22.80;38.90;;;;;;5019530;28;43571;-63
2022/01/30 12:01:26;;;;;;;14.25;5.03;;;22.80;38.90;;;;;;5019826;28;43475;-66
2022/01/30 12:03:59;;;;;;;12.38;4.80;;;22.80;38.90;;;;;;5003917;28;43489;-65
2022/01/30 12:06:30;;;;;;;11.60;4.85;;;22.80;38.90;;;;;;5019492;28;44166;-66
2022/01/30 12:09:17;;;;;;;13.88;5.40;;;22.80;39.00;;;;;;5019933;28;43580;-65
2022/01/30 12:11:48;;;;;;;12.07;5.45;;;22.80;39.00;;;;;;5001891;28;43714;-65
2022/01/30 12:14:21;;;;;;;10.13;4.47;;;22.80;39.00;;;;;;4992372;28;43636;-65
2022/01/30 12:16:51;;;;;;;11.07;4.85;;;22.80;39.00;;;;;;5003161;28;43499;-65
2022/01/30 12:19:31;;;;;;;13.40;4.88;;;22.80;39.00;;;;;;5003954;28;44762;-65
2022/01/30 12:21:59;;;;;;;13.25;4.72;;;22.80;39.00;;;;;;5000620;28;44379;-65
2022/01/30 12:24:31;;;;;;;11.98;5.40;;;22.80;39.00;;;;;;5021431;28;43468;-66
2022/01/30 12:27:02;;;;;;;11.80;4.75;;;22.80;39.50;;;;;;5003615;28;43502;-65
2022/01/30 12:29:38;;;;;;;12.23;4.93;;;22.80;39.00;;;;;;4996402;28;43938;-65
2022/01/30 12:32:24;;;;;;;12.98;4.90;;;22.80;39.00;;;;;;5004175;28;43544;-65
2022/01/30 12:34:55;;;;;;;12.73;5.28;;;22.80;39.70;;;;;;5001844;28;43528;-65
2022/01/30 12:37:28;;;;;;;10.38;4.40;;;22.80;39.00;;;;;;5016892;28;43497;-65
2022/01/30 12:39:57;;;;;;;10.15;4.20;;;22.80;39.00;;;;;;5007894;28;46258;-65
2022/01/30 12:42:27;;;;;;;9.85;4.32;;;22.80;39.10;;;;;;4998100;28;43860;-66
2022/01/30 12:45:03;;;;;;;9.88;4.40;;;22.80;39.20;;;;;;5003784;28;43545;-65
2022/01/30 12:47:44;;;;;;;9.68;4.82;;;22.80;39.10;;;;;;4999121;28;43525;-65
2022/01/30 12:50:11;;;;;;;12.50;4.68;;;22.80;39.10;;;;;;5016248;28;44104;-66
2022/01/30 12:52:39;;;;;;;10.07;4.40;;;22.80;39.10;;;;;;5003346;28;43458;-66
2022/01/30 12:55:12;;;;;;;9.65;4.50;;;22.80;39.10;;;;;;5001037;28;43602;-65
2022/01/30 12:57:41;;;;;;;11.95;4.65;;;22.80;39.10;;;;;;5021764;28;43461;-66
2022/01/30 13:00:12;;;;;;;9.52;4.35;;;22.80;39.10;;;;;;5006609;28;44092;-66
2022/01/30 13:02:59;;;;;;;10.43;4.40;;;22.90;39.10;;;;;;4984709;28;43921;-66
2022/01/30 13:06:00;;;;;;;9.35;4.20;;;22.90;39.10;;;;;;5004593;28;43631;-65
2022/01/30 13:08:51;;;;;;;10.27;4.32;;;22.90;39.00;;;;;;5024343;28;43442;-65
2022/01/30 13:11:20;;;;;;;;;;;22.90;39.10;;;;;;5020292;28;43629;-66
2022/01/30 13:13:55;;;;;;;15.27;4.75;;;22.90;39.10;;;;;;5007421;28;44712;-65
2022/01/30 13:16:24;;;;;;;10.10;4.28;;;22.90;39.00;;;;;;5006443;28;43480;-65
2022/01/30 13:18:52;;;;;;;9.25;4.13;;;22.90;39.20;;;;;;5006241;28;43523;-65
2022/01/30 13:21:27;;;;;;;10.73;4.43;;;22.90;39.00;;;;;;5006569;28;44029;-65
2022/01/30 13:23:55;;;;;;;10.60;4.55;;;22.90;39.00;;;;;;5022956;28;43515;-66
2022/01/30 13:26:35;;;;;;;10.95;4.15;;;23.00;39.10;;;;;;5009236;28;43731;-65
2022/01/30 13:29:13;;;;;;;9.40;4.28;;;23.00;39.00;;;;;;5003653;28;43575;-65
2022/01/30 13:31:42;;;;;;;11.65;4.15;;;23.00;39.10;;;;;;5005182;28;44005;-65
2022/01/30 13:34:15;;;;;;;8.45;3.67;;;23.00;39.10;;;;;;5007123;28;43508;-66
2022/01/30 13:36:53;;;;;;;10.75;4.35;;;23.00;39.10;;;;;;5025188;28;43404;-66
2022/01/30 13:39:28;;;;;;;11.20;4.13;;;23.00;39.20;;;;;;5008478;28;43760;-66
2022/01/30 13:42:13;;;;;;;9.43;4.00;;;23.00;39.20;;;;;;5024124;28;43983;-69
2022/01/30 13:44:53;;;;;;;10.38;3.92;;;23.00;39.30;;;;;;5005711;28;44742;-64
2022/01/30 13:47:22;;;;;;;11.05;4.47;;;23.00;39.40;;;;;;5007944;28;43520;-65
2022/01/30 13:49:50;;;;;;;8.98;4.18;;;23.00;39.40;;;;;;5024646;28;43497;-65
2022/01/30 13:52:19;;;;;;;11.18;4.38;;;23.00;39.40;;;;;;5021163;28;43703;-66
2022/01/30 13:55:05;;;;;;;12.57;5.00;;;23.00;39.40;;;;;;5022644;28;43444;-66
2022/01/30 13:57:35;;;;;;;8.85;3.97;;;23.00;39.40;;;;;;5021570;28;44053;-65
2022/01/30 14:00:19;;;;;;;11.18;4.50;;;23.00;39.40;;;;;;5021636;28;43631;-65
2022/01/30 14:02:55;;;;;;;10.75;4.40;;;23.00;39.40;;;;;;5019526;28;43920;-65
2022/01/30 14:05:32;;;;;;;9.55;4.45;;;23.00;39.50;;;;;;5005131;28;44068;-65
2022/01/30 14:08:01;;;;;;;9.65;3.83;;;23.00;39.60;;;;;;5007802;28;43484;-64
2022/01/30 14:10:33;;;;;;;9.10;3.80;;;23.00;39.60;;;;;;5023554;28;43555;-65
2022/01/30 14:13:05;;;;;;;11.13;4.03;;;23.00;39.70;;;;;;5011516;28;43897;-65